sensor_id;sensor_type;location;lat;lon;timestamp;temperature;humidity
16517;DHT22;8371;52.272;9.746;2023-04-30T00:00:14;7.40;67.00
16517;DHT22;8371;52.272;9.746;2023-04-30T00:02:40;7.40;67.20
16517;DHT22;8371;52.272;9.746;2023-04-30T00:05:06;7.40;67.30
16517;DHT22;8371;52.272;9.746;2023-04-30T00:07:31;7.40;67.30
16517;DHT22;8371;52.272;9.746;2023-04-30T00:09:57;7.30;67.30
16517;DHT22;8371;52.272;9.746;2023-04-30T00:12:23;7.40;67.40
16517;DHT22;8371;52.272;9.746;2023-04-30T00:14:49;7.30;67.40
16517;DHT22;8371;52.272;9.746;2023-04-30T00:17:14;7.30;67.40
16517;DHT22;8371;52.272;9.746;2023-04-30T00:19:41;7.20;67.30
16517;DHT22;8371;52.272;9.746;2023-04-30T00:22:07;7.20;67.50
16517;DHT22;8371;52.272;9.746;2023-04-30T00:24:33;7.20;67.50
16517;DHT22;8371;52.272;9.746;2023-04-30T00:26:58;7.20;67.60
16517;DHT22;8371;52.272;9.746;2023-04-30T00:29:24;7.20;67.70
16517;DHT22;8371;52.272;9.746;2023-04-30T00:31:50;7.10;67.70
16517;DHT22;8371;52.272;9.746;2023-04-30T00:34:16;7.10;67.70
16517;DHT22;8371;52.272;9.746;2023-04-30T00:36:42;7.10;67.70
16517;DHT22;8371;52.272;9.746;2023-04-30T00:39:07;7.10;67.70
16517;DHT22;8371;52.272;9.746;2023-04-30T00:41:37;7.10;67.90
16517;DHT22;8371;52.272;9.746;2023-04-30T00:44:03;7.00;67.80
16517;DHT22;8371;52.272;9.746;2023-04-30T00:46:29;7.00;67.90
16517;DHT22;8371;52.272;9.746;2023-04-30T00:48:55;7.00;67.80
16517;DHT22;8371;52.272;9.746;2023-04-30T00:51:21;7.00;67.90
16517;DHT22;8371;52.272;9.746;2023-04-30T00:53:47;7.00;68.00
16517;DHT22;8371;52.272;9.746;2023-04-30T00:56:14;7.00;68.20
16517;DHT22;8371;52.272;9.746;2023-04-30T00:58:41;7.00;68.00
16517;DHT22;8371;52.272;9.746;2023-04-30T01:01:06;6.90;68.20
16517;DHT22;8371;52.272;9.746;2023-04-30T01:03:32;6.80;68.10
16517;DHT22;8371;52.272;9.746;2023-04-30T01:06:01;6.90;68.20
16517;DHT22;8371;52.272;9.746;2023-04-30T01:08:29;6.80;68.10
16517;DHT22;8371;52.272;9.746;2023-04-30T01:11:11;6.80;68.30
16517;DHT22;8371;52.272;9.746;2023-04-30T01:13:39;6.80;68.30
16517;DHT22;8371;52.272;9.746;2023-04-30T01:16:14;6.80;68.30
16517;DHT22;8371;52.272;9.746;2023-04-30T01:18:51;6.70;68.20
16517;DHT22;8371;52.272;9.746;2023-04-30T01:21:17;6.70;68.20
16517;DHT22;8371;52.272;9.746;2023-04-30T01:29:27;6.60;68.30
16517;DHT22;8371;52.272;9.746;2023-04-30T01:31:54;6.60;68.00
16517;DHT22;8371;52.272;9.746;2023-04-30T01:34:19;6.50;68.00
16517;DHT22;8371;52.272;9.746;2023-04-30T01:42:20;6.30;67.80
16517;DHT22;8371;52.272;9.746;2023-04-30T01:45:20;6.20;67.70
16517;DHT22;8371;52.272;9.746;2023-04-30T01:52:58;6.00;67.80
16517;DHT22;8371;52.272;9.746;2023-04-30T01:55:43;5.90;67.80
16517;DHT22;8371;52.272;9.746;2023-04-30T01:58:12;5.80;67.90
16517;DHT22;8371;52.272;9.746;2023-04-30T02:00:38;5.70;68.00
16517;DHT22;8371;52.272;9.746;2023-04-30T02:03:03;5.70;68.20
16517;DHT22;8371;52.272;9.746;2023-04-30T02:05:29;5.60;68.30
16517;DHT22;8371;52.272;9.746;2023-04-30T02:07:55;5.60;68.40
16517;DHT22;8371;52.272;9.746;2023-04-30T02:10:23;5.60;68.50
16517;DHT22;8371;52.272;9.746;2023-04-30T02:12:49;5.60;68.80
16517;DHT22;8371;52.272;9.746;2023-04-30T02:15:14;5.50;68.90
16517;DHT22;8371;52.272;9.746;2023-04-30T02:17:40;5.50;69.00
16517;DHT22;8371;52.272;9.746;2023-04-30T02:20:07;5.50;69.00
16517;DHT22;8371;52.272;9.746;2023-04-30T02:22:33;5.50;69.20
16517;DHT22;8371;52.272;9.746;2023-04-30T02:24:59;5.50;69.20
16517;DHT22;8371;52.272;9.746;2023-04-30T02:27:28;5.50;69.10
16517;DHT22;8371;52.272;9.746;2023-04-30T02:29:54;5.50;69.20
16517;DHT22;8371;52.272;9.746;2023-04-30T02:32:19;5.40;69.20
16517;DHT22;8371;52.272;9.746;2023-04-30T02:34:45;5.40;69.20
16517;DHT22;8371;52.272;9.746;2023-04-30T02:37:11;5.40;69.40
16517;DHT22;8371;52.272;9.746;2023-04-30T02:39:36;5.40;69.40
16517;DHT22;8371;52.272;9.746;2023-04-30T02:42:02;5.40;69.60
16517;DHT22;8371;52.272;9.746;2023-04-30T02:44:29;5.40;69.60
16517;DHT22;8371;52.272;9.746;2023-04-30T02:46:54;5.40;69.70
16517;DHT22;8371;52.272;9.746;2023-04-30T02:49:20;5.40;69.90
16517;DHT22;8371;52.272;9.746;2023-04-30T02:51:46;5.40;69.90
16517;DHT22;8371;52.272;9.746;2023-04-30T02:54:11;5.40;70.00
16517;DHT22;8371;52.272;9.746;2023-04-30T02:56:37;5.40;70.10
16517;DHT22;8371;52.272;9.746;2023-04-30T02:59:06;5.40;70.20
16517;DHT22;8371;52.272;9.746;2023-04-30T03:01:31;5.50;70.30
16517;DHT22;8371;52.272;9.746;2023-04-30T03:03:57;5.50;70.40
16517;DHT22;8371;52.272;9.746;2023-04-30T03:06:24;5.50;70.40
16517;DHT22;8371;52.272;9.746;2023-04-30T03:08:49;5.50;70.20
16517;DHT22;8371;52.272;9.746;2023-04-30T03:11:15;5.50;70.10
16517;DHT22;8371;52.272;9.746;2023-04-30T03:13:41;5.40;69.80
16517;DHT22;8371;52.272;9.746;2023-04-30T03:16:07;5.40;69.50
16517;DHT22;8371;52.272;9.746;2023-04-30T03:18:33;5.40;69.40
16517;DHT22;8371;52.272;9.746;2023-04-30T03:20:59;5.30;69.30
16517;DHT22;8371;52.272;9.746;2023-04-30T03:23:26;5.20;69.10
16517;DHT22;8371;52.272;9.746;2023-04-30T03:25:52;5.20;69.20
16517;DHT22;8371;52.272;9.746;2023-04-30T03:28:18;5.10;69.10
16517;DHT22;8371;52.272;9.746;2023-04-30T03:30:44;5.00;69.10
16517;DHT22;8371;52.272;9.746;2023-04-30T03:33:09;5.00;69.10
16517;DHT22;8371;52.272;9.746;2023-04-30T03:35:35;4.90;69.10
16517;DHT22;8371;52.272;9.746;2023-04-30T03:38:01;4.80;69.10
16517;DHT22;8371;52.272;9.746;2023-04-30T03:40:27;4.80;69.10
16517;DHT22;8371;52.272;9.746;2023-04-30T03:42:52;4.70;69.20
16517;DHT22;8371;52.272;9.746;2023-04-30T03:45:18;4.70;69.40
16517;DHT22;8371;52.272;9.746;2023-04-30T03:47:44;4.60;69.40
16517;DHT22;8371;52.272;9.746;2023-04-30T03:50:10;4.60;69.60
16517;DHT22;8371;52.272;9.746;2023-04-30T03:52:36;4.60;69.90
16517;DHT22;8371;52.272;9.746;2023-04-30T03:55:02;4.60;69.90
16517;DHT22;8371;52.272;9.746;2023-04-30T03:57:28;4.60;70.00
16517;DHT22;8371;52.272;9.746;2023-04-30T03:59:54;4.60;70.20
16517;DHT22;8371;52.272;9.746;2023-04-30T04:02:20;4.50;70.10
16517;DHT22;8371;52.272;9.746;2023-04-30T04:04:46;4.50;70.20
16517;DHT22;8371;52.272;9.746;2023-04-30T04:07:12;4.50;70.20
16517;DHT22;8371;52.272;9.746;2023-04-30T04:09:39;4.50;70.20
16517;DHT22;8371;52.272;9.746;2023-04-30T04:12:05;4.50;70.20
16517;DHT22;8371;52.272;9.746;2023-04-30T04:14:30;4.50;70.30
16517;DHT22;8371;52.272;9.746;2023-04-30T04:16:56;4.60;70.50
16517;DHT22;8371;52.272;9.746;2023-04-30T04:19:25;4.50;70.40
16517;DHT22;8371;52.272;9.746;2023-04-30T04:21:51;4.60;70.60
16517;DHT22;8371;52.272;9.746;2023-04-30T04:24:16;4.60;70.70
16517;DHT22;8371;52.272;9.746;2023-04-30T04:26:42;4.70;71.00
16517;DHT22;8371;52.272;9.746;2023-04-30T04:29:09;4.70;71.20
16517;DHT22;8371;52.272;9.746;2023-04-30T04:31:35;4.80;71.40
16517;DHT22;8371;52.272;9.746;2023-04-30T04:34:02;5.00;71.80
16517;DHT22;8371;52.272;9.746;2023-04-30T04:36:28;5.10;72.20
16517;DHT22;8371;52.272;9.746;2023-04-30T04:38:58;5.20;72.50
16517;DHT22;8371;52.272;9.746;2023-04-30T04:41:31;5.40;72.60
16517;DHT22;8371;52.272;9.746;2023-04-30T04:44:00;5.50;72.60
16517;DHT22;8371;52.272;9.746;2023-04-30T04:46:26;5.70;72.70
16517;DHT22;8371;52.272;9.746;2023-04-30T04:48:52;5.80;72.80
16517;DHT22;8371;52.272;9.746;2023-04-30T04:51:18;6.10;73.00
16517;DHT22;8371;52.272;9.746;2023-04-30T04:53:44;6.20;73.00
16517;DHT22;8371;52.272;9.746;2023-04-30T04:56:10;6.30;73.00
16517;DHT22;8371;52.272;9.746;2023-04-30T04:58:36;6.50;73.00
16517;DHT22;8371;52.272;9.746;2023-04-30T05:01:02;6.60;73.00
16517;DHT22;8371;52.272;9.746;2023-04-30T05:03:30;6.80;72.90
16517;DHT22;8371;52.272;9.746;2023-04-30T05:05:57;6.90;72.80
16517;DHT22;8371;52.272;9.746;2023-04-30T05:08:23;7.00;72.80
16517;DHT22;8371;52.272;9.746;2023-04-30T05:10:48;7.20;72.80
16517;DHT22;8371;52.272;9.746;2023-04-30T05:13:14;7.30;72.20
16517;DHT22;8371;52.272;9.746;2023-04-30T05:15:39;7.40;72.70
16517;DHT22;8371;52.272;9.746;2023-04-30T05:18:05;7.50;72.70
16517;DHT22;8371;52.272;9.746;2023-04-30T05:20:31;7.60;72.60
16517;DHT22;8371;52.272;9.746;2023-04-30T05:22:56;7.70;72.60
16517;DHT22;8371;52.272;9.746;2023-04-30T05:25:22;7.80;72.60
16517;DHT22;8371;52.272;9.746;2023-04-30T05:27:48;7.90;72.60
16517;DHT22;8371;52.272;9.746;2023-04-30T05:30:14;8.10;72.80
16517;DHT22;8371;52.272;9.746;2023-04-30T05:32:40;8.20;72.70
16517;DHT22;8371;52.272;9.746;2023-04-30T05:35:06;8.30;72.70
16517;DHT22;8371;52.272;9.746;2023-04-30T05:37:32;8.50;72.70
16517;DHT22;8371;52.272;9.746;2023-04-30T05:39:58;8.60;72.70
16517;DHT22;8371;52.272;9.746;2023-04-30T05:42:24;8.70;72.80
16517;DHT22;8371;52.272;9.746;2023-04-30T05:44:49;8.90;72.90
16517;DHT22;8371;52.272;9.746;2023-04-30T05:47:15;9.10;72.90
16517;DHT22;8371;52.272;9.746;2023-04-30T05:49:41;9.20;72.90
16517;DHT22;8371;52.272;9.746;2023-04-30T05:52:06;9.40;72.90
16517;DHT22;8371;52.272;9.746;2023-04-30T05:54:32;9.60;72.70
16517;DHT22;8371;52.272;9.746;2023-04-30T05:56:58;9.80;72.60
16517;DHT22;8371;52.272;9.746;2023-04-30T05:59:23;10.00;72.60
16517;DHT22;8371;52.272;9.746;2023-04-30T06:01:51;10.20;72.60
16517;DHT22;8371;52.272;9.746;2023-04-30T06:04:16;10.50;72.40
16517;DHT22;8371;52.272;9.746;2023-04-30T06:06:42;10.60;72.00
16517;DHT22;8371;52.272;9.746;2023-04-30T06:09:08;10.80;72.00
16517;DHT22;8371;52.272;9.746;2023-04-30T06:11:35;11.00;71.60
16517;DHT22;8371;52.272;9.746;2023-04-30T06:14:02;11.20;71.00
16517;DHT22;8371;52.272;9.746;2023-04-30T06:16:28;11.40;70.40
16517;DHT22;8371;52.272;9.746;2023-04-30T06:18:54;11.50;69.90
16517;DHT22;8371;52.272;9.746;2023-04-30T06:21:20;11.70;69.50
16517;DHT22;8371;52.272;9.746;2023-04-30T06:23:45;11.80;69.20
16517;DHT22;8371;52.272;9.746;2023-04-30T06:26:11;12.00;68.50
16517;DHT22;8371;52.272;9.746;2023-04-30T06:28:38;12.10;68.40
16517;DHT22;8371;52.272;9.746;2023-04-30T06:31:04;12.20;67.90
16517;DHT22;8371;52.272;9.746;2023-04-30T06:33:30;12.40;68.00
16517;DHT22;8371;52.272;9.746;2023-04-30T06:35:56;12.50;67.90
16517;DHT22;8371;52.272;9.746;2023-04-30T06:38:21;12.70;67.70
16517;DHT22;8371;52.272;9.746;2023-04-30T06:40:47;12.80;65.60
16517;DHT22;8371;52.272;9.746;2023-04-30T06:43:13;12.90;65.80
16517;DHT22;8371;52.272;9.746;2023-04-30T06:45:38;13.00;64.10
16517;DHT22;8371;52.272;9.746;2023-04-30T06:48:04;13.10;64.20
16517;DHT22;8371;52.272;9.746;2023-04-30T06:50:30;13.20;63.80
16517;DHT22;8371;52.272;9.746;2023-04-30T06:52:56;13.30;64.50
16517;DHT22;8371;52.272;9.746;2023-04-30T06:55:23;13.20;63.50
16517;DHT22;8371;52.272;9.746;2023-04-30T06:57:48;13.50;64.00
16517;DHT22;8371;52.272;9.746;2023-04-30T07:00:14;13.50;62.90
16517;DHT22;8371;52.272;9.746;2023-04-30T07:02:40;13.60;63.70
16517;DHT22;8371;52.272;9.746;2023-04-30T07:05:06;13.70;63.80
16517;DHT22;8371;52.272;9.746;2023-04-30T07:07:32;13.80;63.80
16517;DHT22;8371;52.272;9.746;2023-04-30T07:09:58;14.00;63.50
16517;DHT22;8371;52.272;9.746;2023-04-30T07:12:23;14.10;62.70
16517;DHT22;8371;52.272;9.746;2023-04-30T07:14:49;14.20;63.20
16517;DHT22;8371;52.272;9.746;2023-04-30T07:17:15;14.30;63.20
16517;DHT22;8371;52.272;9.746;2023-04-30T07:19:41;14.50;63.40
16517;DHT22;8371;52.272;9.746;2023-04-30T07:22:06;14.70;63.00
16517;DHT22;8371;52.272;9.746;2023-04-30T07:24:52;14.80;62.70
16517;DHT22;8371;52.272;9.746;2023-04-30T07:27:18;15.00;62.20
16517;DHT22;8371;52.272;9.746;2023-04-30T07:29:43;15.10;61.30
16517;DHT22;8371;52.272;9.746;2023-04-30T07:32:09;15.20;59.90
16517;DHT22;8371;52.272;9.746;2023-04-30T07:34:35;15.20;58.70
16517;DHT22;8371;52.272;9.746;2023-04-30T07:37:01;15.30;59.80
16517;DHT22;8371;52.272;9.746;2023-04-30T07:39:27;15.30;59.50
16517;DHT22;8371;52.272;9.746;2023-04-30T07:41:53;15.30;59.60
16517;DHT22;8371;52.272;9.746;2023-04-30T07:44:19;15.20;59.30
16517;DHT22;8371;52.272;9.746;2023-04-30T07:46:46;15.30;59.90
16517;DHT22;8371;52.272;9.746;2023-04-30T07:49:11;15.30;59.60
16517;DHT22;8371;52.272;9.746;2023-04-30T07:51:37;15.40;59.30
16517;DHT22;8371;52.272;9.746;2023-04-30T07:54:03;15.40;58.50
16517;DHT22;8371;52.272;9.746;2023-04-30T07:56:29;15.50;58.90
16517;DHT22;8371;52.272;9.746;2023-04-30T07:58:55;15.60;59.80
16517;DHT22;8371;52.272;9.746;2023-04-30T08:01:20;15.70;60.00
16517;DHT22;8371;52.272;9.746;2023-04-30T08:03:46;15.90;59.90
16517;DHT22;8371;52.272;9.746;2023-04-30T08:06:12;16.00;60.10
16517;DHT22;8371;52.272;9.746;2023-04-30T08:08:37;16.20;58.60
16517;DHT22;8371;52.272;9.746;2023-04-30T08:11:04;16.30;57.90
16517;DHT22;8371;52.272;9.746;2023-04-30T08:13:29;16.40;57.70
16517;DHT22;8371;52.272;9.746;2023-04-30T08:15:55;16.40;58.60
16517;DHT22;8371;52.272;9.746;2023-04-30T08:18:21;16.50;58.90
16517;DHT22;8371;52.272;9.746;2023-04-30T08:20:46;16.70;56.90
16517;DHT22;8371;52.272;9.746;2023-04-30T08:23:13;16.80;57.40
16517;DHT22;8371;52.272;9.746;2023-04-30T08:25:38;16.90;56.80
16517;DHT22;8371;52.272;9.746;2023-04-30T08:28:05;17.00;54.90
16517;DHT22;8371;52.272;9.746;2023-04-30T08:30:31;17.10;55.50
16517;DHT22;8371;52.272;9.746;2023-04-30T08:32:57;17.20;54.80
16517;DHT22;8371;52.272;9.746;2023-04-30T08:35:22;17.30;54.90
16517;DHT22;8371;52.272;9.746;2023-04-30T08:37:48;17.20;55.50
16517;DHT22;8371;52.272;9.746;2023-04-30T08:40:14;17.30;55.50
16517;DHT22;8371;52.272;9.746;2023-04-30T08:42:51;17.30;56.10
16517;DHT22;8371;52.272;9.746;2023-04-30T08:45:12;17.40;54.70
16517;DHT22;8371;52.272;9.746;2023-04-30T08:47:39;17.20;55.90
16517;DHT22;8371;52.272;9.746;2023-04-30T08:50:06;17.30;56.20
16517;DHT22;8371;52.272;9.746;2023-04-30T08:52:34;17.40;56.50
16517;DHT22;8371;52.272;9.746;2023-04-30T08:55:00;17.40;56.70
16517;DHT22;8371;52.272;9.746;2023-04-30T08:57:26;17.50;55.60
16517;DHT22;8371;52.272;9.746;2023-04-30T08:59:55;17.70;55.90
16517;DHT22;8371;52.272;9.746;2023-04-30T09:02:20;17.80;54.00
16517;DHT22;8371;52.272;9.746;2023-04-30T09:04:47;17.80;55.10
16517;DHT22;8371;52.272;9.746;2023-04-30T09:07:14;17.90;53.50
16517;DHT22;8371;52.272;9.746;2023-04-30T09:09:40;17.90;54.10
16517;DHT22;8371;52.272;9.746;2023-04-30T09:12:16;18.00;54.90
16517;DHT22;8371;52.272;9.746;2023-04-30T09:14:59;18.00;55.30
16517;DHT22;8371;52.272;9.746;2023-04-30T09:17:26;18.10;55.10
16517;DHT22;8371;52.272;9.746;2023-04-30T09:19:52;18.30;55.10
16517;DHT22;8371;52.272;9.746;2023-04-30T09:22:22;18.40;55.10
16517;DHT22;8371;52.272;9.746;2023-04-30T09:24:50;18.50;55.30
16517;DHT22;8371;52.272;9.746;2023-04-30T09:27:17;18.70;55.60
16517;DHT22;8371;52.272;9.746;2023-04-30T09:29:43;18.80;55.40
16517;DHT22;8371;52.272;9.746;2023-04-30T09:32:09;19.00;55.10
16517;DHT22;8371;52.272;9.746;2023-04-30T09:34:36;19.10;54.90
16517;DHT22;8371;52.272;9.746;2023-04-30T09:37:01;19.20;54.40
16517;DHT22;8371;52.272;9.746;2023-04-30T09:39:29;19.00;53.70
16517;DHT22;8371;52.272;9.746;2023-04-30T09:42:09;19.10;53.30
16517;DHT22;8371;52.272;9.746;2023-04-30T09:44:37;19.10;53.70
16517;DHT22;8371;52.272;9.746;2023-04-30T09:47:03;19.10;54.00
16517;DHT22;8371;52.272;9.746;2023-04-30T09:49:29;19.20;52.20
16517;DHT22;8371;52.272;9.746;2023-04-30T09:51:59;19.20;50.50
16517;DHT22;8371;52.272;9.746;2023-04-30T09:54:28;19.20;50.80
16517;DHT22;8371;52.272;9.746;2023-04-30T09:56:56;19.10;52.30
16517;DHT22;8371;52.272;9.746;2023-04-30T09:59:31;19.30;52.90
16517;DHT22;8371;52.272;9.746;2023-04-30T10:01:58;19.40;52.50
16517;DHT22;8371;52.272;9.746;2023-04-30T10:04:28;19.50;52.90
16517;DHT22;8371;52.272;9.746;2023-04-30T10:06:56;19.70;52.50
16517;DHT22;8371;52.272;9.746;2023-04-30T10:09:28;19.80;52.30
16517;DHT22;8371;52.272;9.746;2023-04-30T10:11:56;20.00;51.30
16517;DHT22;8371;52.272;9.746;2023-04-30T10:14:23;20.20;52.50
16517;DHT22;8371;52.272;9.746;2023-04-30T10:16:57;20.20;52.60
16517;DHT22;8371;52.272;9.746;2023-04-30T10:19:25;20.50;52.80
16517;DHT22;8371;52.272;9.746;2023-04-30T10:21:52;20.60;52.20
16517;DHT22;8371;52.272;9.746;2023-04-30T10:24:19;20.80;51.80
16517;DHT22;8371;52.272;9.746;2023-04-30T10:26:46;21.00;51.60
16517;DHT22;8371;52.272;9.746;2023-04-30T10:29:13;21.10;51.50
16517;DHT22;8371;52.272;9.746;2023-04-30T10:31:45;21.10;50.90
16517;DHT22;8371;52.272;9.746;2023-04-30T10:37:17;21.30;49.90
16517;DHT22;8371;52.272;9.746;2023-04-30T10:39:42;21.30;49.90
16517;DHT22;8371;52.272;9.746;2023-04-30T10:42:09;21.40;50.30
16517;DHT22;8371;52.272;9.746;2023-04-30T10:44:38;21.40;49.60
16517;DHT22;8371;52.272;9.746;2023-04-30T10:47:05;21.40;48.70
16517;DHT22;8371;52.272;9.746;2023-04-30T10:49:31;21.40;47.00
16517;DHT22;8371;52.272;9.746;2023-04-30T10:51:59;21.40;48.60
16517;DHT22;8371;52.272;9.746;2023-04-30T10:54:27;21.50;48.80
16517;DHT22;8371;52.272;9.746;2023-04-30T10:57:00;21.50;49.40
16517;DHT22;8371;52.272;9.746;2023-04-30T10:59:22;21.60;49.60
16517;DHT22;8371;52.272;9.746;2023-04-30T11:01:59;21.80;49.70
16517;DHT22;8371;52.272;9.746;2023-04-30T11:04:25;21.90;49.40
16517;DHT22;8371;52.272;9.746;2023-04-30T11:07:01;22.10;49.80
16517;DHT22;8371;52.272;9.746;2023-04-30T11:09:38;22.20;49.70
16517;DHT22;8371;52.272;9.746;2023-04-30T11:12:10;22.20;49.10
16517;DHT22;8371;52.272;9.746;2023-04-30T11:14:44;22.30;49.20
16517;DHT22;8371;52.272;9.746;2023-04-30T11:17:13;22.50;49.00
16517;DHT22;8371;52.272;9.746;2023-04-30T11:19:47;22.60;48.60
16517;DHT22;8371;52.272;9.746;2023-04-30T11:22:18;22.70;47.80
16517;DHT22;8371;52.272;9.746;2023-04-30T11:27:26;22.90;46.90
16517;DHT22;8371;52.272;9.746;2023-04-30T11:29:53;23.00;44.60
16517;DHT22;8371;52.272;9.746;2023-04-30T11:32:21;23.00;45.50
16517;DHT22;8371;52.272;9.746;2023-04-30T11:34:48;23.00;45.80
16517;DHT22;8371;52.272;9.746;2023-04-30T11:37:26;23.00;45.60
16517;DHT22;8371;52.272;9.746;2023-04-30T11:39:48;23.00;45.50
16517;DHT22;8371;52.272;9.746;2023-04-30T11:42:19;22.80;45.20
16517;DHT22;8371;52.272;9.746;2023-04-30T11:44:45;22.80;45.70
16517;DHT22;8371;52.272;9.746;2023-04-30T11:47:14;22.80;45.90
16517;DHT22;8371;52.272;9.746;2023-04-30T11:49:41;22.80;46.10
16517;DHT22;8371;52.272;9.746;2023-04-30T11:52:07;22.90;46.20
16517;DHT22;8371;52.272;9.746;2023-04-30T11:54:37;23.00;46.00
16517;DHT22;8371;52.272;9.746;2023-04-30T11:57:03;23.00;45.10
16517;DHT22;8371;52.272;9.746;2023-04-30T11:59:30;23.20;45.50
16517;DHT22;8371;52.272;9.746;2023-04-30T12:01:56;23.20;45.00
16517;DHT22;8371;52.272;9.746;2023-04-30T12:04:23;23.30;44.60
16517;DHT22;8371;52.272;9.746;2023-04-30T12:06:49;23.40;44.80
16517;DHT22;8371;52.272;9.746;2023-04-30T12:09:15;23.50;43.90
16517;DHT22;8371;52.272;9.746;2023-04-30T12:11:40;23.50;43.90
16517;DHT22;8371;52.272;9.746;2023-04-30T12:14:08;23.60;43.40
16517;DHT22;8371;52.272;9.746;2023-04-30T12:16:48;23.70;44.20
16517;DHT22;8371;52.272;9.746;2023-04-30T12:19:15;23.80;44.60
16517;DHT22;8371;52.272;9.746;2023-04-30T12:21:43;23.90;43.20
16517;DHT22;8371;52.272;9.746;2023-04-30T12:24:15;24.00;43.10
16517;DHT22;8371;52.272;9.746;2023-04-30T12:26:42;24.10;42.40
16517;DHT22;8371;52.272;9.746;2023-04-30T12:29:16;24.20;42.40
16517;DHT22;8371;52.272;9.746;2023-04-30T12:31:43;24.20;40.50
16517;DHT22;8371;52.272;9.746;2023-04-30T12:34:13;24.20;40.90
16517;DHT22;8371;52.272;9.746;2023-04-30T12:36:40;24.20;42.10
16517;DHT22;8371;52.272;9.746;2023-04-30T12:39:12;24.20;42.60
16517;DHT22;8371;52.272;9.746;2023-04-30T12:41:44;24.30;43.00
16517;DHT22;8371;52.272;9.746;2023-04-30T12:44:22;24.50;42.20
16517;DHT22;8371;52.272;9.746;2023-04-30T12:46:51;24.50;39.40
16517;DHT22;8371;52.272;9.746;2023-04-30T12:49:26;24.50;39.30
16517;DHT22;8371;52.272;9.746;2023-04-30T12:51:57;24.50;39.20
16517;DHT22;8371;52.272;9.746;2023-04-30T12:54:28;24.50;40.50
16517;DHT22;8371;52.272;9.746;2023-04-30T12:57:11;24.40;40.80
16517;DHT22;8371;52.272;9.746;2023-04-30T12:59:55;24.40;41.00
16517;DHT22;8371;52.272;9.746;2023-04-30T13:05:04;24.50;41.50
16517;DHT22;8371;52.272;9.746;2023-04-30T13:07:36;24.60;40.80
16517;DHT22;8371;52.272;9.746;2023-04-30T13:10:04;24.60;40.50
16517;DHT22;8371;52.272;9.746;2023-04-30T13:12:31;24.70;39.10
16517;DHT22;8371;52.272;9.746;2023-04-30T13:14:57;24.70;39.30
16517;DHT22;8371;52.272;9.746;2023-04-30T13:17:22;24.70;39.40
16517;DHT22;8371;52.272;9.746;2023-04-30T13:19:48;24.60;39.70
16517;DHT22;8371;52.272;9.746;2023-04-30T13:22:14;24.60;39.20
16517;DHT22;8371;52.272;9.746;2023-04-30T13:24:40;24.50;38.90
16517;DHT22;8371;52.272;9.746;2023-04-30T13:27:05;24.50;37.80
16517;DHT22;8371;52.272;9.746;2023-04-30T13:29:31;24.50;39.30
16517;DHT22;8371;52.272;9.746;2023-04-30T13:31:57;24.50;39.30
16517;DHT22;8371;52.272;9.746;2023-04-30T13:34:23;24.50;39.30
16517;DHT22;8371;52.272;9.746;2023-04-30T13:36:49;24.50;37.90
16517;DHT22;8371;52.272;9.746;2023-04-30T13:39:16;24.50;38.90
16517;DHT22;8371;52.272;9.746;2023-04-30T13:41:42;24.60;39.10
16517;DHT22;8371;52.272;9.746;2023-04-30T13:44:07;24.60;38.60
16517;DHT22;8371;52.272;9.746;2023-04-30T13:46:33;24.60;38.70
16517;DHT22;8371;52.272;9.746;2023-04-30T13:48:59;24.60;39.10
16517;DHT22;8371;52.272;9.746;2023-04-30T13:51:24;24.70;39.00
16517;DHT22;8371;52.272;9.746;2023-04-30T13:53:51;24.70;38.80
16517;DHT22;8371;52.272;9.746;2023-04-30T13:56:17;24.70;38.90
16517;DHT22;8371;52.272;9.746;2023-04-30T13:58:42;24.80;38.80
16517;DHT22;8371;52.272;9.746;2023-04-30T14:01:08;24.80;38.50
16517;DHT22;8371;52.272;9.746;2023-04-30T14:03:34;25.00;39.30
16517;DHT22;8371;52.272;9.746;2023-04-30T14:06:00;25.10;38.30
16517;DHT22;8371;52.272;9.746;2023-04-30T14:08:26;25.10;38.30
16517;DHT22;8371;52.272;9.746;2023-04-30T14:10:51;25.20;37.00
16517;DHT22;8371;52.272;9.746;2023-04-30T14:13:17;25.20;37.50
16517;DHT22;8371;52.272;9.746;2023-04-30T14:15:43;25.20;37.50
16517;DHT22;8371;52.272;9.746;2023-04-30T14:18:08;25.20;36.70
16517;DHT22;8371;52.272;9.746;2023-04-30T14:20:34;25.20;35.80
16517;DHT22;8371;52.272;9.746;2023-04-30T14:23:00;25.20;36.50
16517;DHT22;8371;52.272;9.746;2023-04-30T14:25:26;25.20;36.70
16517;DHT22;8371;52.272;9.746;2023-04-30T14:27:52;25.20;36.60
16517;DHT22;8371;52.272;9.746;2023-04-30T14:30:17;25.20;36.80
16517;DHT22;8371;52.272;9.746;2023-04-30T14:32:43;25.20;37.00
16517;DHT22;8371;52.272;9.746;2023-04-30T14:35:08;25.10;35.80
16517;DHT22;8371;52.272;9.746;2023-04-30T14:37:34;25.10;35.70
16517;DHT22;8371;52.272;9.746;2023-04-30T14:40:00;25.10;35.90
16517;DHT22;8371;52.272;9.746;2023-04-30T14:42:26;25.10;35.60
16517;DHT22;8371;52.272;9.746;2023-04-30T14:44:52;25.20;36.40
16517;DHT22;8371;52.272;9.746;2023-04-30T14:47:17;25.00;36.50
16517;DHT22;8371;52.272;9.746;2023-04-30T14:49:44;25.00;36.50
16517;DHT22;8371;52.272;9.746;2023-04-30T14:52:10;25.10;36.10
16517;DHT22;8371;52.272;9.746;2023-04-30T14:54:36;25.10;36.50
16517;DHT22;8371;52.272;9.746;2023-04-30T14:57:01;25.20;36.10
16517;DHT22;8371;52.272;9.746;2023-04-30T14:59:28;25.20;35.70
16517;DHT22;8371;52.272;9.746;2023-04-30T15:01:54;25.20;35.50
16517;DHT22;8371;52.272;9.746;2023-04-30T15:04:20;25.20;35.90
16517;DHT22;8371;52.272;9.746;2023-04-30T15:06:46;25.20;34.70
16517;DHT22;8371;52.272;9.746;2023-04-30T15:09:11;25.20;34.40
16517;DHT22;8371;52.272;9.746;2023-04-30T15:11:38;25.20;35.10
16517;DHT22;8371;52.272;9.746;2023-04-30T15:14:03;25.20;34.40
16517;DHT22;8371;52.272;9.746;2023-04-30T15:16:29;25.10;35.20
16517;DHT22;8371;52.272;9.746;2023-04-30T15:18:55;25.10;35.20
16517;DHT22;8371;52.272;9.746;2023-04-30T15:21:21;25.00;34.80
16517;DHT22;8371;52.272;9.746;2023-04-30T15:23:46;25.00;34.50
16517;DHT22;8371;52.272;9.746;2023-04-30T15:26:13;24.90;33.40
16517;DHT22;8371;52.272;9.746;2023-04-30T15:28:38;24.80;32.70
16517;DHT22;8371;52.272;9.746;2023-04-30T15:31:04;24.70;33.90
16517;DHT22;8371;52.272;9.746;2023-04-30T15:33:31;24.50;34.40
16517;DHT22;8371;52.272;9.746;2023-04-30T15:35:57;24.50;34.40
16517;DHT22;8371;52.272;9.746;2023-04-30T15:38:23;24.30;34.80
16517;DHT22;8371;52.272;9.746;2023-04-30T15:40:48;24.20;34.70
16517;DHT22;8371;52.272;9.746;2023-04-30T15:43:14;24.20;34.50
16517;DHT22;8371;52.272;9.746;2023-04-30T15:45:40;24.20;35.50
16517;DHT22;8371;52.272;9.746;2023-04-30T15:48:06;24.30;35.40
16517;DHT22;8371;52.272;9.746;2023-04-30T15:50:32;24.40;35.40
16517;DHT22;8371;52.272;9.746;2023-04-30T15:52:58;24.30;35.00
16517;DHT22;8371;52.272;9.746;2023-04-30T15:55:23;24.50;35.20
16517;DHT22;8371;52.272;9.746;2023-04-30T15:57:49;24.50;35.40
16517;DHT22;8371;52.272;9.746;2023-04-30T16:00:15;24.50;35.10
16517;DHT22;8371;52.272;9.746;2023-04-30T16:02:41;24.60;34.50
16517;DHT22;8371;52.272;9.746;2023-04-30T16:05:07;24.60;34.60
16517;DHT22;8371;52.272;9.746;2023-04-30T16:07:33;24.60;34.30
16517;DHT22;8371;52.272;9.746;2023-04-30T16:09:59;24.50;33.60
16517;DHT22;8371;52.272;9.746;2023-04-30T16:12:26;24.50;33.70
16517;DHT22;8371;52.272;9.746;2023-04-30T16:14:52;24.40;33.70